sensor_id;sensor_type;location;lat;lon;timestamp;temperature;humidity
13268;DHT22;6702;47.068;15.458;2023-03-01T00:00:25;4.90;74.60
13268;DHT22;6702;47.068;15.458;2023-03-01T00:03:29;4.90;74.70
13268;DHT22;6702;47.068;15.458;2023-03-01T00:06:32;4.90;74.90
13268;DHT22;6702;47.068;15.458;2023-03-01T00:09:36;4.80;75.00
13268;DHT22;6702;47.068;15.458;2023-03-01T00:12:41;4.80;75.60
13268;DHT22;6702;47.068;15.458;2023-03-01T00:15:44;4.80;75.80
13268;DHT22;6702;47.068;15.458;2023-03-01T00:18:47;4.80;75.90
13268;DHT22;6702;47.068;15.458;2023-03-01T00:21:51;4.80;76.20
13268;DHT22;6702;47.068;15.458;2023-03-01T00:24:54;4.80;76.30
13268;DHT22;6702;47.068;15.458;2023-03-01T00:27:59;4.80;76.50
13268;DHT22;6702;47.068;15.458;2023-03-01T00:31:06;4.80;76.40
13268;DHT22;6702;47.068;15.458;2023-03-01T00:34:09;4.80;76.50
13268;DHT22;6702;47.068;15.458;2023-03-01T00:37:13;4.80;76.40
13268;DHT22;6702;47.068;15.458;2023-03-01T00:40:16;4.80;76.40
13268;DHT22;6702;47.068;15.458;2023-03-01T00:43:21;4.80;77.10
13268;DHT22;6702;47.068;15.458;2023-03-01T00:46:26;4.70;77.60
13268;DHT22;6702;47.068;15.458;2023-03-01T00:49:29;4.80;77.60
13268;DHT22;6702;47.068;15.458;2023-03-01T00:52:33;4.80;77.30
13268;DHT22;6702;47.068;15.458;2023-03-01T00:55:36;4.90;77.40
13268;DHT22;6702;47.068;15.458;2023-03-01T00:58:41;4.90;77.10
13268;DHT22;6702;47.068;15.458;2023-03-01T01:01:44;4.80;76.90
13268;DHT22;6702;47.068;15.458;2023-03-01T01:04:47;4.90;77.10
13268;DHT22;6702;47.068;15.458;2023-03-01T01:07:51;4.90;77.30
13268;DHT22;6702;47.068;15.458;2023-03-01T01:10:54;4.90;77.40
13268;DHT22;6702;47.068;15.458;2023-03-01T01:13:59;4.90;77.40
13268;DHT22;6702;47.068;15.458;2023-03-01T01:17:02;4.90;77.30
13268;DHT22;6702;47.068;15.458;2023-03-01T01:20:07;4.90;77.40
13268;DHT22;6702;47.068;15.458;2023-03-01T01:23:10;4.80;77.40
13268;DHT22;6702;47.068;15.458;2023-03-01T01:26:15;4.80;77.40
13268;DHT22;6702;47.068;15.458;2023-03-01T01:29:20;4.80;77.70
13268;DHT22;6702;47.068;15.458;2023-03-01T01:32:23;4.80;77.50
13268;DHT22;6702;47.068;15.458;2023-03-01T01:35:28;4.80;77.70
13268;DHT22;6702;47.068;15.458;2023-03-01T01:38:31;4.90;77.80
13268;DHT22;6702;47.068;15.458;2023-03-01T01:41:35;4.90;77.40
13268;DHT22;6702;47.068;15.458;2023-03-01T01:44:40;4.90;77.40
13268;DHT22;6702;47.068;15.458;2023-03-01T01:47:43;4.90;77.40
13268;DHT22;6702;47.068;15.458;2023-03-01T01:50:54;4.90;77.50
13268;DHT22;6702;47.068;15.458;2023-03-01T01:54:00;4.90;78.50
13268;DHT22;6702;47.068;15.458;2023-03-01T01:57:07;5.00;77.70
13268;DHT22;6702;47.068;15.458;2023-03-01T02:00:16;4.90;77.40
13268;DHT22;6702;47.068;15.458;2023-03-01T02:03:24;4.90;77.50
13268;DHT22;6702;47.068;15.458;2023-03-01T02:06:33;4.90;78.00
13268;DHT22;6702;47.068;15.458;2023-03-01T02:09:38;4.90;78.00
13268;DHT22;6702;47.068;15.458;2023-03-01T02:12:41;4.80;77.90
13268;DHT22;6702;47.068;15.458;2023-03-01T02:15:46;4.80;78.40
13268;DHT22;6702;47.068;15.458;2023-03-01T02:18:50;4.80;78.80
13268;DHT22;6702;47.068;15.458;2023-03-01T02:21:58;4.80;79.20
13268;DHT22;6702;47.068;15.458;2023-03-01T02:25:12;4.80;79.20
13268;DHT22;6702;47.068;15.458;2023-03-01T02:28:32;4.80;79.40
13268;DHT22;6702;47.068;15.458;2023-03-01T02:31:36;4.90;79.50
13268;DHT22;6702;47.068;15.458;2023-03-01T02:34:45;4.90;79.40
13268;DHT22;6702;47.068;15.458;2023-03-01T02:37:49;4.90;79.20
13268;DHT22;6702;47.068;15.458;2023-03-01T02:40:54;4.80;79.10
13268;DHT22;6702;47.068;15.458;2023-03-01T02:44:00;4.80;79.10
13268;DHT22;6702;47.068;15.458;2023-03-01T02:47:04;4.90;80.10
13268;DHT22;6702;47.068;15.458;2023-03-01T02:50:24;4.90;79.20
13268;DHT22;6702;47.068;15.458;2023-03-01T02:53:33;4.90;79.30
13268;DHT22;6702;47.068;15.458;2023-03-01T02:56:37;4.90;79.40
13268;DHT22;6702;47.068;15.458;2023-03-01T02:59:42;4.90;79.50
13268;DHT22;6702;47.068;15.458;2023-03-01T03:02:47;4.90;79.70
13268;DHT22;6702;47.068;15.458;2023-03-01T03:05:51;4.90;79.80
13268;DHT22;6702;47.068;15.458;2023-03-01T03:08:54;4.90;80.00
13268;DHT22;6702;47.068;15.458;2023-03-01T03:11:57;4.90;80.20
13268;DHT22;6702;47.068;15.458;2023-03-01T03:15:02;4.90;79.70
13268;DHT22;6702;47.068;15.458;2023-03-01T03:18:12;4.90;79.60
13268;DHT22;6702;47.068;15.458;2023-03-01T03:21:16;5.00;79.00
13268;DHT22;6702;47.068;15.458;2023-03-01T03:24:19;4.90;78.80
13268;DHT22;6702;47.068;15.458;2023-03-01T03:27:22;4.90;78.90
13268;DHT22;6702;47.068;15.458;2023-03-01T03:30:29;4.90;78.60
13268;DHT22;6702;47.068;15.458;2023-03-01T03:33:32;5.00;78.30
13268;DHT22;6702;47.068;15.458;2023-03-01T03:36:36;4.90;78.30
13268;DHT22;6702;47.068;15.458;2023-03-01T03:39:39;5.00;78.50
13268;DHT22;6702;47.068;15.458;2023-03-01T03:42:42;5.00;78.40
13268;DHT22;6702;47.068;15.458;2023-03-01T03:45:47;5.00;78.30
13268;DHT22;6702;47.068;15.458;2023-03-01T03:48:51;5.00;78.10
13268;DHT22;6702;47.068;15.458;2023-03-01T03:51:54;5.00;78.00
13268;DHT22;6702;47.068;15.458;2023-03-01T03:54:58;5.10;77.90
13268;DHT22;6702;47.068;15.458;2023-03-01T03:58:02;5.10;77.70
13268;DHT22;6702;47.068;15.458;2023-03-01T04:01:10;5.10;77.60
13268;DHT22;6702;47.068;15.458;2023-03-01T04:04:13;5.00;77.60
13268;DHT22;6702;47.068;15.458;2023-03-01T04:07:19;5.10;77.50
13268;DHT22;6702;47.068;15.458;2023-03-01T04:10:22;5.10;77.30
13268;DHT22;6702;47.068;15.458;2023-03-01T04:13:26;5.10;76.40
13268;DHT22;6702;47.068;15.458;2023-03-01T04:16:31;5.10;76.30
13268;DHT22;6702;47.068;15.458;2023-03-01T04:19:34;5.10;76.50
13268;DHT22;6702;47.068;15.458;2023-03-01T04:22:38;5.10;77.50
13268;DHT22;6702;47.068;15.458;2023-03-01T04:25:45;5.10;77.70
13268;DHT22;6702;47.068;15.458;2023-03-01T04:28:48;5.10;78.00
13268;DHT22;6702;47.068;15.458;2023-03-01T04:31:53;5.10;78.30
13268;DHT22;6702;47.068;15.458;2023-03-01T04:34:57;5.10;78.50
13268;DHT22;6702;47.068;15.458;2023-03-01T04:38:00;5.10;78.60
13268;DHT22;6702;47.068;15.458;2023-03-01T04:41:04;5.10;78.80
13268;DHT22;6702;47.068;15.458;2023-03-01T04:44:07;5.10;78.90
13268;DHT22;6702;47.068;15.458;2023-03-01T04:47:12;5.20;78.80
13268;DHT22;6702;47.068;15.458;2023-03-01T04:50:17;5.20;79.10
13268;DHT22;6702;47.068;15.458;2023-03-01T04:53:22;5.20;79.40
13268;DHT22;6702;47.068;15.458;2023-03-01T04:56:25;5.10;79.50
13268;DHT22;6702;47.068;15.458;2023-03-01T04:59:28;5.10;79.70
13268;DHT22;6702;47.068;15.458;2023-03-01T05:02:33;5.20;79.90
13268;DHT22;6702;47.068;15.458;2023-03-01T05:05:37;5.10;79.80
13268;DHT22;6702;47.068;15.458;2023-03-01T05:08:41;5.10;79.90
13268;DHT22;6702;47.068;15.458;2023-03-01T05:11:45;5.20;79.90
13268;DHT22;6702;47.068;15.458;2023-03-01T05:14:48;5.10;79.80
13268;DHT22;6702;47.068;15.458;2023-03-01T05:17:55;5.20;79.90
13268;DHT22;6702;47.068;15.458;2023-03-01T05:21:03;5.10;79.80
13268;DHT22;6702;47.068;15.458;2023-03-01T05:24:07;5.10;79.70
13268;DHT22;6702;47.068;15.458;2023-03-01T05:27:13;5.10;79.60
13268;DHT22;6702;47.068;15.458;2023-03-01T05:30:17;5.10;79.70
13268;DHT22;6702;47.068;15.458;2023-03-01T05:33:22;5.10;79.90
13268;DHT22;6702;47.068;15.458;2023-03-01T05:36:25;5.10;79.90
13268;DHT22;6702;47.068;15.458;2023-03-01T05:39:29;5.20;80.10
13268;DHT22;6702;47.068;15.458;2023-03-01T05:42:33;5.20;80.00
13268;DHT22;6702;47.068;15.458;2023-03-01T05:45:37;5.20;79.80
13268;DHT22;6702;47.068;15.458;2023-03-01T05:48:42;5.20;79.80
13268;DHT22;6702;47.068;15.458;2023-03-01T05:51:49;5.20;79.90
13268;DHT22;6702;47.068;15.458;2023-03-01T05:54:52;5.20;79.80
13268;DHT22;6702;47.068;15.458;2023-03-01T05:57:57;5.10;79.70
13268;DHT22;6702;47.068;15.458;2023-03-01T06:01:00;5.10;79.70
13268;DHT22;6702;47.068;15.458;2023-03-01T06:04:05;5.10;79.80
13268;DHT22;6702;47.068;15.458;2023-03-01T06:07:08;5.10;79.90
13268;DHT22;6702;47.068;15.458;2023-03-01T06:10:12;5.10;80.00
13268;DHT22;6702;47.068;15.458;2023-03-01T06:13:16;5.10;80.00
13268;DHT22;6702;47.068;15.458;2023-03-01T06:16:19;5.20;79.90
13268;DHT22;6702;47.068;15.458;2023-03-01T06:19:23;5.30;80.10
13268;DHT22;6702;47.068;15.458;2023-03-01T06:22:27;5.40;80.20
13268;DHT22;6702;47.068;15.458;2023-03-01T06:25:30;5.40;79.80
13268;DHT22;6702;47.068;15.458;2023-03-01T06:28:34;5.40;79.60
13268;DHT22;6702;47.068;15.458;2023-03-01T06:31:37;5.40;79.60
13268;DHT22;6702;47.068;15.458;2023-03-01T06:34:41;5.40;79.40
13268;DHT22;6702;47.068;15.458;2023-03-01T06:37:45;5.50;79.50
13268;DHT22;6702;47.068;15.458;2023-03-01T06:40:51;5.50;79.40
13268;DHT22;6702;47.068;15.458;2023-03-01T06:43:55;5.50;79.50
13268;DHT22;6702;47.068;15.458;2023-03-01T06:46:58;5.50;79.50
13268;DHT22;6702;47.068;15.458;2023-03-01T06:50:04;5.50;79.40
13268;DHT22;6702;47.068;15.458;2023-03-01T06:53:07;5.60;79.50
13268;DHT22;6702;47.068;15.458;2023-03-01T06:56:10;5.50;79.30
13268;DHT22;6702;47.068;15.458;2023-03-01T06:59:14;5.60;79.50
13268;DHT22;6702;47.068;15.458;2023-03-01T07:02:17;5.60;79.60
13268;DHT22;6702;47.068;15.458;2023-03-01T07:05:21;5.60;80.30
13268;DHT22;6702;47.068;15.458;2023-03-01T07:08:24;5.60;79.60
13268;DHT22;6702;47.068;15.458;2023-03-01T07:11:28;5.60;79.40
13268;DHT22;6702;47.068;15.458;2023-03-01T07:14:31;5.60;79.00
13268;DHT22;6702;47.068;15.458;2023-03-01T07:17:34;5.60;79.00
13268;DHT22;6702;47.068;15.458;2023-03-01T07:20:39;5.60;79.10
13268;DHT22;6702;47.068;15.458;2023-03-01T07:23:42;5.70;78.60
13268;DHT22;6702;47.068;15.458;2023-03-01T07:26:48;5.60;78.20
13268;DHT22;6702;47.068;15.458;2023-03-01T07:29:52;5.60;75.90
13268;DHT22;6702;47.068;15.458;2023-03-01T07:32:55;5.60;74.10
13268;DHT22;6702;47.068;15.458;2023-03-01T07:36:02;5.60;73.40
13268;DHT22;6702;47.068;15.458;2023-03-01T07:39:06;5.60;73.50
13268;DHT22;6702;47.068;15.458;2023-03-01T07:42:09;5.70;72.50
13268;DHT22;6702;47.068;15.458;2023-03-01T07:45:12;5.70;71.00
13268;DHT22;6702;47.068;15.458;2023-03-01T07:48:16;5.80;70.70
13268;DHT22;6702;47.068;15.458;2023-03-01T07:51:20;5.80;69.50
13268;DHT22;6702;47.068;15.458;2023-03-01T07:54:23;5.70;70.80
13268;DHT22;6702;47.068;15.458;2023-03-01T07:57:28;5.70;71.30
13268;DHT22;6702;47.068;15.458;2023-03-01T08:00:31;5.70;71.30
13268;DHT22;6702;47.068;15.458;2023-03-01T08:03:35;5.70;72.70
13268;DHT22;6702;47.068;15.458;2023-03-01T08:06:39;5.70;73.50
13268;DHT22;6702;47.068;15.458;2023-03-01T08:09:42;5.80;73.70
13268;DHT22;6702;47.068;15.458;2023-03-01T08:12:46;5.90;73.10
13268;DHT22;6702;47.068;15.458;2023-03-01T08:15:49;5.90;71.50
13268;DHT22;6702;47.068;15.458;2023-03-01T08:18:52;6.00;71.60
13268;DHT22;6702;47.068;15.458;2023-03-01T08:21:59;6.20;71.80
13268;DHT22;6702;47.068;15.458;2023-03-01T08:25:02;6.20;71.30
13268;DHT22;6702;47.068;15.458;2023-03-01T08:28:05;6.30;71.50
13268;DHT22;6702;47.068;15.458;2023-03-01T08:31:16;6.20;69.50
13268;DHT22;6702;47.068;15.458;2023-03-01T08:34:20;6.10;70.60
13268;DHT22;6702;47.068;15.458;2023-03-01T08:37:25;6.10;70.30
13268;DHT22;6702;47.068;15.458;2023-03-01T08:40:28;6.20;70.90
13268;DHT22;6702;47.068;15.458;2023-03-01T08:43:31;6.40;70.20
13268;DHT22;6702;47.068;15.458;2023-03-01T08:46:36;6.40;70.10
13268;DHT22;6702;47.068;15.458;2023-03-01T08:49:39;6.40;70.40
13268;DHT22;6702;47.068;15.458;2023-03-01T08:52:44;6.50;70.80
13268;DHT22;6702;47.068;15.458;2023-03-01T08:55:47;6.60;71.00
13268;DHT22;6702;47.068;15.458;2023-03-01T08:58:51;6.60;71.60
13268;DHT22;6702;47.068;15.458;2023-03-01T09:01:54;6.60;71.50
13268;DHT22;6702;47.068;15.458;2023-03-01T09:04:58;6.60;72.20
13268;DHT22;6702;47.068;15.458;2023-03-01T09:08:02;6.70;72.20
13268;DHT22;6702;47.068;15.458;2023-03-01T09:11:07;6.70;72.00
13268;DHT22;6702;47.068;15.458;2023-03-01T09:14:11;6.70;72.20
13268;DHT22;6702;47.068;15.458;2023-03-01T09:17:14;6.70;72.10
13268;DHT22;6702;47.068;15.458;2023-03-01T09:20:17;6.80;72.30
13268;DHT22;6702;47.068;15.458;2023-03-01T09:23:22;6.90;72.40
13268;DHT22;6702;47.068;15.458;2023-03-01T09:26:25;6.90;72.40
13268;DHT22;6702;47.068;15.458;2023-03-01T09:29:28;6.90;72.50
13268;DHT22;6702;47.068;15.458;2023-03-01T09:32:32;7.00;72.60
13268;DHT22;6702;47.068;15.458;2023-03-01T09:35:35;7.00;73.40
13268;DHT22;6702;47.068;15.458;2023-03-01T09:38:40;6.90;72.00
13268;DHT22;6702;47.068;15.458;2023-03-01T09:41:46;6.70;72.30
13268;DHT22;6702;47.068;15.458;2023-03-01T09:44:53;6.60;73.20
13268;DHT22;6702;47.068;15.458;2023-03-01T09:48:00;6.50;73.50
13268;DHT22;6702;47.068;15.458;2023-03-01T09:51:07;6.40;75.30
13268;DHT22;6702;47.068;15.458;2023-03-01T09:54:13;6.30;76.70
13268;DHT22;6702;47.068;15.458;2023-03-01T09:57:19;6.30;76.40
13268;DHT22;6702;47.068;15.458;2023-03-01T10:00:33;6.40;75.50
13268;DHT22;6702;47.068;15.458;2023-03-01T10:03:43;6.40;75.10
13268;DHT22;6702;47.068;15.458;2023-03-01T10:06:56;6.40;74.60
13268;DHT22;6702;47.068;15.458;2023-03-01T10:10:05;6.50;74.60
13268;DHT22;6702;47.068;15.458;2023-03-01T10:13:15;6.40;74.50
13268;DHT22;6702;47.068;15.458;2023-03-01T10:16:24;6.60;74.90
13268;DHT22;6702;47.068;15.458;2023-03-01T10:19:32;6.70;75.40
13268;DHT22;6702;47.068;15.458;2023-03-01T10:22:36;6.80;75.00
13268;DHT22;6702;47.068;15.458;2023-03-01T10:25:50;6.70;75.20
13268;DHT22;6702;47.068;15.458;2023-03-01T10:29:02;6.70;74.10
13268;DHT22;6702;47.068;15.458;2023-03-01T10:32:05;6.60;74.10
13268;DHT22;6702;47.068;15.458;2023-03-01T10:35:17;6.70;74.60
13268;DHT22;6702;47.068;15.458;2023-03-01T10:38:21;6.90;74.60
13268;DHT22;6702;47.068;15.458;2023-03-01T10:41:27;6.90;74.40
13268;DHT22;6702;47.068;15.458;2023-03-01T10:44:40;7.00;74.50
13268;DHT22;6702;47.068;15.458;2023-03-01T10:47:43;7.00;74.70
13268;DHT22;6702;47.068;15.458;2023-03-01T10:50:48;6.90;75.50
13268;DHT22;6702;47.068;15.458;2023-03-01T10:53:52;6.80;75.10
13268;DHT22;6702;47.068;15.458;2023-03-01T10:56:58;6.50;75.80
13268;DHT22;6702;47.068;15.458;2023-03-01T11:00:21;6.50;76.80
13268;DHT22;6702;47.068;15.458;2023-03-01T11:03:27;6.70;77.20
13268;DHT22;6702;47.068;15.458;2023-03-01T11:06:30;6.80;77.30
13268;DHT22;6702;47.068;15.458;2023-03-01T11:09:34;7.00;77.80
13268;DHT22;6702;47.068;15.458;2023-03-01T11:12:40;7.00;77.80
13268;DHT22;6702;47.068;15.458;2023-03-01T11:15:58;7.10;77.90
13268;DHT22;6702;47.068;15.458;2023-03-01T11:19:17;7.20;78.30
13268;DHT22;6702;47.068;15.458;2023-03-01T11:22:22;7.20;78.00
13268;DHT22;6702;47.068;15.458;2023-03-01T11:25:27;7.30;78.20
13268;DHT22;6702;47.068;15.458;2023-03-01T11:28:35;7.40;77.80
13268;DHT22;6702;47.068;15.458;2023-03-01T11:31:41;7.50;77.50
13268;DHT22;6702;47.068;15.458;2023-03-01T11:35:03;7.60;77.30
13268;DHT22;6702;47.068;15.458;2023-03-01T11:38:16;7.70;76.80
13268;DHT22;6702;47.068;15.458;2023-03-01T11:41:25;7.80;75.80
13268;DHT22;6702;47.068;15.458;2023-03-01T11:44:33;7.80;75.90
13268;DHT22;6702;47.068;15.458;2023-03-01T11:47:47;7.80;75.80
13268;DHT22;6702;47.068;15.458;2023-03-01T11:50:56;7.80;77.00
13268;DHT22;6702;47.068;15.458;2023-03-01T11:54:06;7.70;76.30
13268;DHT22;6702;47.068;15.458;2023-03-01T11:57:17;7.60;76.40
13268;DHT22;6702;47.068;15.458;2023-03-01T12:00:49;7.70;76.80
13268;DHT22;6702;47.068;15.458;2023-03-01T12:07:33;7.90;76.50
13268;DHT22;6702;47.068;15.458;2023-03-01T12:10:44;8.00;75.90
13268;DHT22;6702;47.068;15.458;2023-03-01T12:17:53;8.10;75.30
13268;DHT22;6702;47.068;15.458;2023-03-01T12:21:09;8.30;75.00
13268;DHT22;6702;47.068;15.458;2023-03-01T12:24:46;8.50;74.10
13268;DHT22;6702;47.068;15.458;2023-03-01T12:28:11;8.60;73.80
13268;DHT22;6702;47.068;15.458;2023-03-01T12:31:44;8.60;73.20
13268;DHT22;6702;47.068;15.458;2023-03-01T12:35:11;8.50;73.20
13268;DHT22;6702;47.068;15.458;2023-03-01T12:38:32;8.50;72.60
13268;DHT22;6702;47.068;15.458;2023-03-01T12:41:43;8.50;72.40
13268;DHT22;6702;47.068;15.458;2023-03-01T12:45:02;8.40;72.30
13268;DHT22;6702;47.068;15.458;2023-03-01T12:48:19;8.30;72.90
13268;DHT22;6702;47.068;15.458;2023-03-01T12:51:31;8.40;73.00
13268;DHT22;6702;47.068;15.458;2023-03-01T12:54:37;8.40;73.20
13268;DHT22;6702;47.068;15.458;2023-03-01T12:57:42;8.40;73.30
13268;DHT22;6702;47.068;15.458;2023-03-01T13:01:00;8.50;73.40
13268;DHT22;6702;47.068;15.458;2023-03-01T13:04:15;8.60;74.30
13268;DHT22;6702;47.068;15.458;2023-03-01T13:07:27;8.60;72.40
13268;DHT22;6702;47.068;15.458;2023-03-01T13:10:36;8.70;72.60
13268;DHT22;6702;47.068;15.458;2023-03-01T13:13:45;8.80;72.30
13268;DHT22;6702;47.068;15.458;2023-03-01T13:16:51;8.80;72.30
13268;DHT22;6702;47.068;15.458;2023-03-01T13:19:59;8.70;72.50
13268;DHT22;6702;47.068;15.458;2023-03-01T13:23:07;8.80;73.20
13268;DHT22;6702;47.068;15.458;2023-03-01T13:26:15;8.90;73.00
13268;DHT22;6702;47.068;15.458;2023-03-01T13:29:26;8.90;72.70
13268;DHT22;6702;47.068;15.458;2023-03-01T13:32:30;8.90;72.80
13268;DHT22;6702;47.068;15.458;2023-03-01T13:35:49;9.00;72.60
13268;DHT22;6702;47.068;15.458;2023-03-01T13:38:57;9.00;72.70
13268;DHT22;6702;47.068;15.458;2023-03-01T13:42:01;9.00;72.80
13268;DHT22;6702;47.068;15.458;2023-03-01T13:45:24;8.90;72.80
13268;DHT22;6702;47.068;15.458;2023-03-01T13:48:30;8.90;73.10
13268;DHT22;6702;47.068;15.458;2023-03-01T13:51:34;8.90;73.60
13268;DHT22;6702;47.068;15.458;2023-03-01T13:54:39;8.70;73.80
13268;DHT22;6702;47.068;15.458;2023-03-01T13:57:46;8.70;74.30
13268;DHT22;6702;47.068;15.458;2023-03-01T14:00:57;8.60;74.80
13268;DHT22;6702;47.068;15.458;2023-03-01T14:04:01;8.60;75.40
13268;DHT22;6702;47.068;15.458;2023-03-01T14:07:10;8.30;75.70
13268;DHT22;6702;47.068;15.458;2023-03-01T14:10:15;8.40;76.30
13268;DHT22;6702;47.068;15.458;2023-03-01T14:13:32;8.50;76.40
13268;DHT22;6702;47.068;15.458;2023-03-01T14:16:45;8.50;76.10
13268;DHT22;6702;47.068;15.458;2023-03-01T14:19:56;8.60;76.00
13268;DHT22;6702;47.068;15.458;2023-03-01T14:23:02;8.70;76.20
13268;DHT22;6702;47.068;15.458;2023-03-01T14:26:12;8.70;76.40
13268;DHT22;6702;47.068;15.458;2023-03-01T14:29:26;8.70;76.80
13268;DHT22;6702;47.068;15.458;2023-03-01T14:32:31;8.80;77.30
13268;DHT22;6702;47.068;15.458;2023-03-01T14:35:36;8.80;77.80
13268;DHT22;6702;47.068;15.458;2023-03-01T14:38:41;8.70;78.50
13268;DHT22;6702;47.068;15.458;2023-03-01T14:41:46;8.70;79.50
13268;DHT22;6702;47.068;15.458;2023-03-01T14:44:51;8.60;80.50
13268;DHT22;6702;47.068;15.458;2023-03-01T14:47:59;8.50;80.40
13268;DHT22;6702;47.068;15.458;2023-03-01T14:51:05;8.50;81.10
13268;DHT22;6702;47.068;15.458;2023-03-01T14:54:20;8.40;81.90
13268;DHT22;6702;47.068;15.458;2023-03-01T14:57:26;8.40;83.30
13268;DHT22;6702;47.068;15.458;2023-03-01T15:00:31;8.40;83.90
13268;DHT22;6702;47.068;15.458;2023-03-01T15:03:37;8.40;84.70
13268;DHT22;6702;47.068;15.458;2023-03-01T15:06:42;8.30;84.50
13268;DHT22;6702;47.068;15.458;2023-03-01T15:09:46;8.20;85.60
13268;DHT22;6702;47.068;15.458;2023-03-01T15:12:51;8.20;86.70
13268;DHT22;6702;47.068;15.458;2023-03-01T15:16:05;8.10;87.30
13268;DHT22;6702;47.068;15.458;2023-03-01T15:19:16;8.00;87.80
13268;DHT22;6702;47.068;15.458;2023-03-01T15:22:21;8.00;88.70
13268;DHT22;6702;47.068;15.458;2023-03-01T15:25:26;8.00;89.10
13268;DHT22;6702;47.068;15.458;2023-03-01T15:28:33;7.90;90.10
13268;DHT22;6702;47.068;15.458;2023-03-01T15:31:37;7.90;90.30
13268;DHT22;6702;47.068;15.458;2023-03-01T15:34:41;7.90;90.40
13268;DHT22;6702;47.068;15.458;2023-03-01T15:37:46;7.90;90.70
13268;DHT22;6702;47.068;15.458;2023-03-01T15:40:50;7.90;90.90
13268;DHT22;6702;47.068;15.458;2023-03-01T15:43:55;7.80;91.20
13268;DHT22;6702;47.068;15.458;2023-03-01T15:46:58;7.80;91.30
13268;DHT22;6702;47.068;15.458;2023-03-01T15:50:02;7.80;91.60
13268;DHT22;6702;47.068;15.458;2023-03-01T15:53:08;7.80;91.70
13268;DHT22;6702;47.068;15.458;2023-03-01T15:56:13;7.80;92.00
13268;DHT22;6702;47.068;15.458;2023-03-01T15:59:18;7.70;92.30
13268;DHT22;6702;47.068;15.458;2023-03-01T16:02:22;7.80;92.60
13268;DHT22;6702;47.068;15.458;2023-03-01T16:05:28;7.70;92.80
13268;DHT22;6702;47.068;15.458;2023-03-01T16:08:32;7.70;93.30
13268;DHT22;6702;47.068;15.458;2023-03-01T16:11:36;7.70;93.90
13268;DHT22;6702;47.068;15.458;2023-03-01T16:14:43;7.60;94.10
13268;DHT22;6702;47.068;15.458;2023-03-01T16:17:48;7.60;94.40
13268;DHT22;6702;47.068;15.458;2023-03-01T16:20:52;7.60;94.80
13268;DHT22;6702;47.068;15.458;2023-03-01T16:23:56;7.60;95.10
13268;DHT22;6702;47.068;15.458;2023-03-01T16:27:00;7.60;95.70
13268;DHT22;6702;47.068;15.458;2023-03-01T16:30:07;7.50;96.80
13268;DHT22;6702;47.068;15.458;2023-03-01T16:33:10;7.50;96.80
13268;DHT22;6702;47.068;15.458;2023-03-01T16:36:29;7.40;97.20
13268;DHT22;6702;47.068;15.458;2023-03-01T16:39:32;7.40;97.40
13268;DHT22;6702;47.068;15.458;2023-03-01T16:42:36;7.40;97.70
13268;DHT22;6702;47.068;15.458;2023-03-01T16:45:43;7.30;97.80
13268;DHT22;6702;47.068;15.458;2023-03-01T16:48:48;7.30;97.90
13268;DHT22;6702;47.068;15.458;2023-03-01T16:51:53;7.30;98.10
13268;DHT22;6702;47.068;15.458;2023-03-01T16:54:57;7.20;98.40
13268;DHT22;6702;47.068;15.458;2023-03-01T16:58:01;7.20;98.60
13268;DHT22;6702;47.068;15.458;2023-03-01T17:01:10;7.10;98.90
13268;DHT22;6702;47.068;15.458;2023-03-01T17:04:14;7.00;99.20
13268;DHT22;6702;47.068;15.458;2023-03-01T17:07:20;7.10;99.30
13268;DHT22;6702;47.068;15.458;2023-03-01T17:10:24;7.00;99.50
13268;DHT22;6702;47.068;15.458;2023-03-01T17:13:27;7.00;99.70
13268;DHT22;6702;47.068;15.458;2023-03-01T17:16:33;7.00;99.90
13268;DHT22;6702;47.068;15.458;2023-03-01T17:19:38;7.00;99.90
13268;DHT22;6702;47.068;15.458;2023-03-01T17:22:45;7.00;99.90
13268;DHT22;6702;47.068;15.458;2023-03-01T17:25:49;7.00;99.90
13268;DHT22;6702;47.068;15.458;2023-03-01T17:28:57;7.00;99.90
13268;DHT22;6702;47.068;15.458;2023-03-01T17:32:02;7.00;99.90
13268;DHT22;6702;47.068;15.458;2023-03-01T17:35:07;7.10;99.90
13268;DHT22;6702;47.068;15.458;2023-03-01T17:38:14;7.10;99.90
13268;DHT22;6702;47.068;15.458;2023-03-01T17:41:18;7.20;99.90
13268;DHT22;6702;47.068;15.458;2023-03-01T17:44:23;7.20;99.90
13268;DHT22;6702;47.068;15.458;2023-03-01T17:47:29;7.20;99.90
13268;DHT22;6702;47.068;15.458;2023-03-01T17:50:33;7.20;99.90
13268;DHT22;6702;47.068;15.458;2023-03-01T17:53:39;7.20;99.90
13268;DHT22;6702;47.068;15.458;2023-03-01T17:56:43;7.30;99.90
13268;DHT22;6702;47.068;15.458;2023-03-01T17:59:48;7.30;99.90
13268;DHT22;6702;47.068;15.458;2023-03-01T18:02:54;7.30;99.90
13268;DHT22;6702;47.068;15.458;2023-03-01T18:05:57;7.30;99.90
13268;DHT22;6702;47.068;15.458;2023-03-01T18:09:00;7.30;99.90
13268;DHT22;6702;47.068;15.458;2023-03-01T18:12:05;7.30;99.90
13268;DHT22;6702;47.068;15.458;2023-03-01T18:15:11;7.30;99.90
13268;DHT22;6702;47.068;15.458;2023-03-01T18:18:16;7.30;99.90
13268;DHT22;6702;47.068;15.458;2023-03-01T18:21:20;7.20;99.90
13268;DHT22;6702;47.068;15.458;2023-03-01T18:24:25;7.10;99.90
13268;DHT22;6702;47.068;15.458;2023-03-01T18:27:29;7.10;99.90
13268;DHT22;6702;47.068;15.458;2023-03-01T18:30:33;7.00;99.90
13268;DHT22;6702;47.068;15.458;2023-03-01T18:33:39;7.00;99.90
13268;DHT22;6702;47.068;15.458;2023-03-01T18:36:44;7.00;99.90
13268;DHT22;6702;47.068;15.458;2023-03-01T18:40:09;7.00;99.90
13268;DHT22;6702;47.068;15.458;2023-03-01T18:43:15;7.00;99.90
13268;DHT22;6702;47.068;15.458;2023-03-01T18:46:19;7.00;99.90
13268;DHT22;6702;47.068;15.458;2023-03-01T18:49:26;7.00;99.90
13268;DHT22;6702;47.068;15.458;2023-03-01T18:52:30;7.00;99.90
13268;DHT22;6702;47.068;15.458;2023-03-01T18:55:35;6.80;99.90
13268;DHT22;6702;47.068;15.458;2023-03-01T18:58:40;6.80;99.90
13268;DHT22;6702;47.068;15.458;2023-03-01T19:01:47;6.80;99.90
13268;DHT22;6702;47.068;15.458;2023-03-01T19:04:52;6.80;99.90
13268;DHT22;6702;47.068;15.458;2023-03-01T19:07:57;6.80;99.90
13268;DHT22;6702;47.068;15.458;2023-03-01T19:11:04;6.80;99.90
13268;DHT22;6702;47.068;15.458;2023-03-01T19:14:10;6.90;99.90
13268;DHT22;6702;47.068;15.458;2023-03-01T19:17:15;6.90;99.90
13268;DHT22;6702;47.068;15.458;2023-03-01T19:20:21;6.90;99.90
13268;DHT22;6702;47.068;15.458;2023-03-01T19:23:28;6.90;99.90
13268;DHT22;6702;47.068;15.458;2023-03-01T19:26:33;7.00;99.90
13268;DHT22;6702;47.068;15.458;2023-03-01T19:29:38;7.00;99.90
13268;DHT22;6702;47.068;15.458;2023-03-01T19:32:43;7.00;99.90
13268;DHT22;6702;47.068;15.458;2023-03-01T19:35:49;7.00;99.90
13268;DHT22;6702;47.068;15.458;2023-03-01T19:38:58;7.10;99.90
13268;DHT22;6702;47.068;15.458;2023-03-01T19:42:04;7.10;99.90
13268;DHT22;6702;47.068;15.458;2023-03-01T19:45:09;7.10;99.90
13268;DHT22;6702;47.068;15.458;2023-03-01T19:48:16;7.10;99.90
13268;DHT22;6702;47.068;15.458;2023-03-01T19:51:22;7.00;99.90
13268;DHT22;6702;47.068;15.458;2023-03-01T19:54:33;6.80;99.90
13268;DHT22;6702;47.068;15.458;2023-03-01T19:57:38;6.80;99.90
13268;DHT22;6702;47.068;15.458;2023-03-01T20:00:45;6.70;99.90